Time;durP1;ratioP1;P1;durP2;ratioP2;P2;SDS_P1;SDS_P2;PMS_P1;PMS_P2;Temp;Humidity;BMP_temperature;BMP_pressure;BME280_temperature;BME280_humidity;BME280_pressure;Samples;Min_cycle;Max_cycle;Signal;HPM_P1;HPM_P2
2023/08/27 00:02:03;;;;;;;11.80;10.83;;;;;;;;;;5020271;28;20282;-65
2023/08/27 00:04:31;;;;;;;11.83;10.83;;;;;;;;;;5020061;28;20232;-67
2023/08/27 00:06:59;;;;;;;10.77;9.87;;;;;;;;;;5022871;28;20222;-65
2023/08/27 00:09:27;;;;;;;11.13;10.00;;;;;;;;;;4999973;28;20296;-67
2023/08/27 00:11:59;;;;;;;10.77;9.87;;;;;;;;;;4828229;28;21803;-66
2023/08/27 00:14:27;;;;;;;10.57;9.80;;;;;;;;;;4999350;28;20565;-65
2023/08/27 00:16:55;;;;;;;10.17;9.37;;;;;;;-148.82;100.00;60434.72;4981431;28;21323;-67
2023/08/27 00:19:23;;;;;;;9.97;9.03;;;;;;;;;;5008153;28;20197;-65
2023/08/27 00:21:52;;;;;;;9.83;8.80;;;;;;;;;;5021492;28;21096;-67
2023/08/27 00:24:19;;;;;;;10.33;9.43;;;;;;;;;;5023277;28;20212;-64
2023/08/27 00:26:47;;;;;;;11.10;10.00;;;;;;;;;;4993038;28;20315;-67
2023/08/27 00:29:19;;;;;;;11.10;10.20;;;;;;;;;;4992168;28;20299;-64
2023/08/27 00:31:46;;;;;;;10.93;10.13;;;;;;;;;;4997136;28;20200;-67
2023/08/27 00:34:14;;;;;;;9.90;9.00;;;;;;;;;;4989052;28;20824;-64
2023/08/27 00:36:42;;;;;;;9.63;8.83;;;;;;;-148.82;100.00;60434.72;5022868;28;20327;-68
2023/08/27 00:39:09;;;;;;;10.80;9.80;;;;;;;;;;5016925;28;20735;-66
2023/08/27 00:41:37;;;;;;;10.43;9.40;;;;;;;;;;4981242;28;20291;-67
2023/08/27 00:44:06;;;;;;;9.73;8.83;;;;;;;;;;4946096;28;20204;-65
2023/08/27 00:46:35;;;;;;;10.70;9.60;;;;;;;;;;5013276;28;20234;-67
2023/08/27 00:49:03;;;;;;;9.70;8.80;;;;;;;;;;4974650;28;20647;-64
2023/08/27 00:51:32;;;;;;;8.37;7.77;;;;;;;;;;5019253;28;20258;-66
2023/08/27 00:54:00;;;;;;;9.33;8.60;;;;;;;16.46;nan;96513.97;5018936;28;20255;-64
2023/08/27 00:56:28;;;;;;;8.80;8.07;;;;;;;16.41;nan;96469.22;5017407;28;20223;-66
2023/08/27 00:58:55;;;;;;;9.33;8.57;;;;;;;16.42;nan;96480.75;5017111;28;20229;-65
2023/08/27 01:01:23;;;;;;;9.60;8.67;;;;;;;16.46;nan;96493.38;5018436;28;20694;-66
2023/08/27 01:03:52;;;;;;;9.90;9.10;;;;;;;16.43;nan;96488.50;4952115;28;20295;-65
2023/08/27 01:06:20;;;;;;;10.67;9.87;;;;;;;16.43;nan;96477.81;5018714;28;20308;-66
2023/08/27 01:08:54;;;;;;;10.63;9.83;;;;;;;16.46;nan;96482.69;5016740;28;20208;-65
2023/08/27 01:11:29;;;;;;;10.77;9.67;;;;;;;-148.82;98.13;60572.78;5018370;28;21808;-64
2023/08/27 01:14:01;;;;;;;10.73;9.73;;;;;;;;;;4917086;28;20839;-64
2023/08/27 01:16:29;;;;;;;10.93;9.83;;;;;;;-148.82;100.00;60434.72;5020544;28;20201;-67
2023/08/27 01:18:59;;;;;;;10.90;9.93;;;;;;;;;;5016680;28;20261;-65
2023/08/27 01:21:28;;;;;;;9.83;9.13;;;;;;;;;;5020814;28;20291;-65
2023/08/27 01:23:56;;;;;;;10.53;9.63;;;;;;;-148.82;100.00;60434.72;4967731;28;20212;-62
2023/08/27 01:26:27;;;;;;;11.47;10.50;;;;;;;-148.82;100.00;60434.72;5019149;28;20880;-67
2023/08/27 01:28:57;;;;;;;11.77;10.67;;;;;;;-148.82;100.00;60434.72;5017886;28;20228;-63
2023/08/27 01:31:27;;;;;;;10.53;9.57;;;;;;;;;;5013249;28;20216;-64
2023/08/27 01:33:56;;;;;;;10.37;9.57;;;;;;;-148.82;100.00;60434.72;5016283;28;20232;-64
2023/08/27 01:36:25;;;;;;;10.57;9.77;;;;;;;-148.82;100.00;60434.72;5018852;28;20216;-66
2023/08/27 01:38:54;;;;;;;10.47;9.77;;;;;;;-148.82;100.00;60434.72;4952123;28;20722;-65
2023/08/27 01:41:21;;;;;;;10.20;9.50;;;;;;;-148.82;100.00;60434.72;5021332;28;20208;-63
2023/08/27 01:43:49;;;;;;;10.53;9.73;;;;;;;-148.82;100.00;60434.72;5016054;28;20212;-63
2023/08/27 01:46:16;;;;;;;10.93;10.03;;;;;;;-148.82;100.00;60434.72;5021489;28;20911;-65
2023/08/27 01:48:44;;;;;;;10.67;9.77;;;;;;;-148.82;100.00;60434.72;4889687;28;20228;-66
2023/08/27 01:51:12;;;;;;;10.83;9.93;;;;;;;-148.82;100.00;60434.72;5020179;28;20332;-66
2023/08/27 01:53:41;;;;;;;10.60;9.60;;;;;;;-148.82;100.00;60434.72;4956971;28;20212;-66
2023/08/27 01:56:09;;;;;;;10.40;9.60;;;;;;;-148.82;100.00;60434.72;5019888;28;20287;-64
2023/08/27 01:58:37;;;;;;;10.93;9.90;;;;;;;-148.82;100.00;60434.72;5015879;28;20251;-67
2023/08/27 02:01:05;;;;;;;11.77;10.67;;;;;;;-148.82;100.00;60434.72;5020125;28;20196;-67
2023/08/27 02:03:33;;;;;;;9.47;8.67;;;;;;;-148.82;100.00;60434.72;5010880;28;20571;-65
2023/08/27 02:06:00;;;;;;;10.97;9.87;;;;;;;-148.82;100.00;60434.72;5022114;28;20200;-66
2023/08/27 02:08:28;;;;;;;10.17;9.33;;;;;;;;;;5017209;28;20294;-64
2023/08/27 02:10:56;;;;;;;11.50;10.40;;;;;;;-148.82;100.00;60434.72;5019067;28;20775;-64
2023/08/27 02:13:25;;;;;;;11.30;10.23;;;;;;;-148.82;100.00;60434.72;4956825;28;20272;-64
2023/08/27 02:15:53;;;;;;;10.10;9.20;;;;;;;-148.82;100.00;60434.72;5027768;28;20229;-66
2023/08/27 02:18:20;;;;;;;10.20;9.40;;;;;;;-148.82;100.00;60434.72;5021279;28;20213;-66
2023/08/27 02:20:48;;;;;;;11.37;10.37;;;;;;;-148.82;100.00;60434.72;5015701;28;20499;-63
2023/08/27 02:23:15;;;;;;;10.40;9.40;;;;;;;-148.82;100.00;60434.72;4898444;28;20261;-64
2023/08/27 02:25:43;;;;;;;10.20;9.30;;;;;;;;;;4903207;28;20204;-65
2023/08/27 02:28:11;;;;;;;9.57;8.77;;;;;;;-148.82;100.00;60434.72;5013851;28;20294;-66
2023/08/27 02:30:40;;;;;;;10.20;9.30;;;;;;;-148.82;100.00;60434.72;4955416;28;20338;-64
2023/08/27 02:33:07;;;;;;;9.97;9.07;;;;;;;-148.82;100.00;60434.72;5013444;28;20283;-64
2023/08/27 02:35:35;;;;;;;9.80;8.93;;;;;;;-148.82;100.00;60434.72;4977214;28;20212;-67
2023/08/27 02:38:03;;;;;;;9.57;8.77;;;;;;;-148.82;100.00;60434.72;5018658;28;20345;-66
2023/08/27 02:40:31;;;;;;;10.93;10.03;;;;;;;-148.82;100.00;102595.13;4959420;28;20309;-67
2023/08/27 02:42:59;;;;;;;8.83;8.00;;;;;;;22.07;100.00;60434.72;5015777;28;20254;-67
2023/08/27 02:45:27;;;;;;;11.23;10.23;;;;;;;-148.82;100.00;60434.72;4974023;28;20762;-67
2023/08/27 02:47:56;;;;;;;10.17;9.17;;;;;;;-148.82;100.00;60434.72;5018766;28;20487;-66
2023/08/27 02:50:24;;;;;;;10.43;9.47;;;;;;;-148.82;100.00;60434.72;5012268;28;20289;-65
2023/08/27 02:52:51;;;;;;;10.13;9.33;;;;;;;-148.82;100.00;60434.72;5019858;28;20286;-66
2023/08/27 02:55:19;;;;;;;10.27;9.27;;;;;;;-148.82;100.00;60434.72;5011123;28;20319;-66
2023/08/27 02:57:46;;;;;;;10.73;9.87;;;;;;;-148.82;100.00;60434.72;5014648;28;20281;-66
2023/08/27 03:00:14;;;;;;;9.37;8.67;;;;;;;190.63;100.00;60434.72;4884625;28;20213;-65
2023/08/27 03:02:42;;;;;;;9.50;8.70;;;;;;;-148.82;100.00;60434.72;5013161;28;20208;-64
2023/08/27 03:05:11;;;;;;;9.40;8.70;;;;;;;;;;5011933;28;20711;-65
2023/08/27 03:07:38;;;;;;;9.47;8.60;;;;;;;;;;5016709;28;20498;-67
2023/08/27 03:10:06;;;;;;;9.63;8.83;;;;;;;;;;4960031;28;20898;-64
2023/08/27 03:12:34;;;;;;;9.67;8.90;;;;;;;-148.82;100.00;60434.72;5015060;28;20287;-66
2023/08/27 03:15:02;;;;;;;10.33;9.23;;;;;;;;;;4956690;28;20884;-65
2023/08/27 03:17:29;;;;;;;10.47;9.10;;;;;;;;;;5021468;28;20329;-65
2023/08/27 03:19:57;;;;;;;10.37;9.40;;;;;;;;;;4975913;28;20232;-66
2023/08/27 03:22:25;;;;;;;10.53;9.63;;;;;;;;;;5016625;28;20303;-64
2023/08/27 03:24:54;;;;;;;10.73;9.70;;;;;;;;;;4960938;28;20218;-65
2023/08/27 03:27:20;;;;;;;12.10;11.20;;;;;;;;;;5016376;28;20220;-65
2023/08/27 03:29:48;;;;;;;11.10;10.07;;;;;;;;;;4912410;28;20219;-66
2023/08/27 03:32:15;;;;;;;13.70;12.37;;;;;;;;;;5017188;28;20452;-65
2023/08/27 03:34:43;;;;;;;13.40;12.30;;;;;;;-148.82;100.00;60434.72;5013621;28;20212;-64
2023/08/27 03:37:11;;;;;;;12.30;11.20;;;;;;;;;;5017021;28;20232;-62
2023/08/27 03:39:40;;;;;;;13.00;11.83;;;;;;;;;;5010633;28;20264;-63
2023/08/27 03:42:08;;;;;;;12.17;11.10;;;;;;;;;;5020924;28;20257;-65
2023/08/27 03:44:36;;;;;;;11.77;10.80;;;;;;;;;;5010120;28;20204;-64
2023/08/27 03:47:04;;;;;;;11.33;10.33;;;;;;;;;;5015015;28;20318;-64
2023/08/27 03:49:31;;;;;;;12.03;11.13;;;;;;;;;;4957664;28;20803;-66
2023/08/27 03:51:59;;;;;;;12.07;10.97;;;;;;;;;;5014646;28;20295;-66
2023/08/27 03:54:27;;;;;;;10.50;9.67;;;;;;;;;;5013234;28;20394;-64
2023/08/27 03:56:56;;;;;;;12.03;10.93;;;;;;;;;;5017987;28;20230;-66
2023/08/27 03:59:24;;;;;;;12.87;11.70;;;;;;;;;;4957756;28;20944;-64
2023/08/27 04:01:52;;;;;;;12.73;11.50;;;;;;;;;;5019478;28;20212;-65
2023/08/27 04:04:20;;;;;;;12.43;11.23;;;;;;;;;;4884374;28;21647;-68
2023/08/27 04:06:47;;;;;;;12.37;11.17;;;;;;;;;;5020219;28;20231;-65
2023/08/27 04:09:15;;;;;;;12.70;11.57;;;;;;;-148.82;100.00;60434.72;5012319;28;20228;-67
2023/08/27 04:11:42;;;;;;;12.70;11.57;;;;;;;;;;4953654;28;20231;-67
2023/08/27 04:14:11;;;;;;;12.20;11.10;;;;;;;;;;5021001;28;20201;-65
2023/08/27 04:16:39;;;;;;;12.27;11.17;;;;;;;;;;4968562;28;20435;-65
2023/08/27 04:19:06;;;;;;;12.57;11.27;;;;;;;;;;5015199;28;20230;-66
2023/08/27 04:21:33;;;;;;;11.73;10.73;;;;;;;;;;4961891;28;20841;-65
2023/08/27 04:24:01;;;;;;;12.20;11.00;;;;;;;;;;5019822;28;20200;-66
2023/08/27 04:26:28;;;;;;;10.73;9.80;;;;;;;;;;5016088;28;20230;-67
2023/08/27 04:28:55;;;;;;;11.30;10.30;;;;;;;;;;5018785;28;20212;-67
2023/08/27 04:31:24;;;;;;;11.40;10.40;;;;;;;;;;4966705;28;20205;-67
2023/08/27 04:33:52;;;;;;;10.60;9.80;;;;;;;;;;5019855;28;20749;-65
2023/08/27 04:36:20;;;;;;;10.47;9.67;;;;;;;;;;4887973;28;20386;-64
2023/08/27 04:38:47;;;;;;;11.03;10.03;;;;;;;;;;4881491;28;20959;-66
2023/08/27 04:41:14;;;;;;;10.00;9.20;;;;;;;;;;5018651;28;20228;-66
2023/08/27 04:43:42;;;;;;;10.10;9.10;;;;;;;;;;4962413;28;20282;-64
2023/08/27 04:46:09;;;;;;;11.20;10.10;;;;;;;;;;5017045;28;20250;-66
2023/08/27 04:48:38;;;;;;;10.27;9.40;;;;;;;;;;5015108;28;20869;-65
2023/08/27 04:51:06;;;;;;;9.27;8.57;;;;;;;;;;5018810;28;20790;-67
2023/08/27 04:53:33;;;;;;;10.00;9.20;;;;;;;;;;5021045;28;20308;-65
2023/08/27 04:56:01;;;;;;;9.27;8.57;;;;;;;-148.82;100.00;60434.72;4961605;28;20333;-65
2023/08/27 04:58:28;;;;;;;9.90;9.10;;;;;;;;;;5017843;28;20271;-65
2023/08/27 05:00:56;;;;;;;12.23;11.00;;;;;;;;;;5018222;28;20574;-63
2023/08/27 05:03:25;;;;;;;10.23;8.93;;;;;;;-148.82;100.00;60434.72;5016833;28;20297;-67
2023/08/27 05:05:54;;;;;;;30.70;11.50;;;;;;;;;;5013228;28;20753;-65
2023/08/27 05:08:22;;;;;;;11.47;10.33;;;;;;;17.85;nan;96443.09;5017289;28;20220;-59
2023/08/27 05:10:51;;;;;;;10.77;9.67;;;;;;;17.04;nan;96447.03;4890803;28;21183;-62
2023/08/27 05:13:21;;;;;;;9.80;9.10;;;;;;;16.72;nan;96437.69;4949216;28;20217;-61
2023/08/27 05:15:48;;;;;;;9.87;8.97;;;;;;;16.70;nan;96444.34;4983942;28;20358;-63
2023/08/27 05:18:16;;;;;;;9.90;8.53;;;;;;;16.68;nan;96438.41;4997642;28;20890;-62
2023/08/27 05:20:45;;;;;;;9.13;8.30;;;;;;;16.67;nan;96440.28;4998204;28;20203;-63
2023/08/27 05:23:14;;;;;;;9.03;8.20;;;;;;;16.62;nan;96440.19;4999421;28;20636;-62
2023/08/27 05:25:42;;;;;;;10.50;9.37;;;;;;;16.63;nan;96437.25;4976473;28;20223;-63
2023/08/27 05:28:11;;;;;;;9.57;8.77;;;;;;;16.62;nan;96440.19;4970748;28;20992;-61
2023/08/27 05:30:42;;;;;;;10.27;9.20;;;;;;;16.66;nan;96435.97;4967449;28;20689;-61
2023/08/27 05:33:10;;;;;;;8.90;8.30;;;;;;;16.72;nan;96431.53;4971497;28;20205;-61
2023/08/27 05:35:38;;;;;;;10.03;9.23;;;;;;;16.85;nan;96433.88;4956594;28;20586;-62
2023/08/27 05:38:05;;;;;;;9.93;8.87;;;;;;;16.87;nan;96439.00;4999079;28;20847;-62
2023/08/27 05:40:34;;;;;;;9.97;8.97;;;;;;;16.89;nan;96426.19;4994215;28;20212;-61
2023/08/27 05:43:05;;;;;;;9.43;8.63;;;;;;;16.95;nan;96419.88;4957294;28;20208;-61
2023/08/27 05:45:35;;;;;;;9.70;8.90;;;;;;;17.01;nan;96421.59;4931554;28;20428;-63
2023/08/27 05:48:03;;;;;;;8.90;8.03;;;;;;;17.01;nan;96418.09;4996361;28;20220;-63
2023/08/27 05:50:34;;;;;;;7.70;7.03;;;;;;;17.02;nan;96422.38;4997984;28;20204;-62
2023/08/27 05:53:02;;;;;;;8.13;7.43;;;;;;;17.01;nan;96418.91;5000709;28;20228;-63
2023/08/27 05:55:30;;;;;;;8.10;7.37;;;;;;;17.06;nan;96420.88;4995768;28;20218;-62
2023/08/27 05:58:00;;;;;;;8.40;7.70;;;;;;;17.03;nan;96424.84;4992066;28;20252;-61
2023/08/27 06:00:28;;;;;;;8.40;7.67;;;;;;;16.99;nan;96421.03;4960600;28;20212;-63
2023/08/27 06:02:56;;;;;;;7.73;7.03;;;;;;;16.99;nan;96423.69;4992105;28;20209;-61
2023/08/27 06:05:26;;;;;;;8.07;7.47;;;;;;;16.81;nan;96423.91;4952313;28;20232;-61
2023/08/27 06:07:53;;;;;;;9.27;7.17;;;;;;;16.82;nan;96430.88;4989745;28;20414;-63
2023/08/27 06:10:21;;;;;;;7.50;6.97;;;;;;;16.66;nan;96432.47;4869293;28;20209;-62
2023/08/27 06:12:49;;;;;;;6.67;6.17;;;;;;;16.68;nan;96436.53;4998112;28;20216;-61
2023/08/27 06:15:19;;;;;;;6.73;5.63;;;;;;;16.81;nan;96448.81;4881895;28;20879;-62
2023/08/27 06:17:46;;;;;;;6.17;5.57;;;;;;;16.71;nan;96448.63;4997462;28;20232;-62
2023/08/27 06:20:14;;;;;;;5.73;5.33;;;;;;;16.57;nan;96448.13;4936065;28;20219;-63
2023/08/27 06:22:42;;;;;;;5.70;5.30;;;;;;;16.61;nan;96458.09;4999324;28;20739;-62
2023/08/27 06:25:10;;;;;;;6.57;6.07;;;;;;;16.82;nan;96457.63;4939197;28;20209;-63
2023/08/27 06:27:37;;;;;;;6.47;5.97;;;;;;;16.78;nan;96457.31;4996206;28;20292;-64
2023/08/27 06:30:06;;;;;;;6.43;6.00;;;;;;;16.91;nan;96456.19;4940491;28;20213;-62
2023/08/27 06:32:35;;;;;;;6.10;5.70;;;;;;;16.71;nan;96448.63;4995227;28;20668;-62
2023/08/27 06:35:03;;;;;;;6.43;5.93;;;;;;;16.78;nan;96441.25;4938035;28;20291;-61
2023/08/27 06:37:31;;;;;;;6.70;6.10;;;;;;;16.73;nan;96439.31;4996762;28;20578;-61
2023/08/27 06:39:59;;;;;;;6.83;6.33;;;;;;;16.56;nan;96449.19;4993972;28;20201;-61
2023/08/27 06:42:27;;;;;;;6.17;5.80;;;;;;;16.46;nan;96449.78;4997833;28;20208;-59
2023/08/27 06:44:54;;;;;;;6.80;6.20;;;;;;;16.53;nan;96450.44;4993799;28;20209;-61
2023/08/27 06:47:22;;;;;;;7.00;6.50;;;;;;;16.57;nan;96450.81;4996133;28;20470;-59
2023/08/27 06:49:51;;;;;;;7.87;7.27;;;;;;;16.57;nan;96456.16;4865433;28;20231;-60
2023/08/27 06:52:19;;;;;;;6.63;6.13;;;;;;;16.63;nan;96452.50;4992800;28;20216;-59
2023/08/27 06:54:47;;;;;;;5.93;5.23;;;;;;;16.60;nan;96459.13;4996659;28;20208;-60
2023/08/27 06:57:14;;;;;;;5.27;4.97;;;;;;;16.58;nan;96455.09;4996183;28;20240;-61
2023/08/27 06:59:42;;;;;;;5.63;5.13;;;;;;;16.71;nan;96456.66;4932746;28;20208;-60
2023/08/27 07:02:10;;;;;;;5.70;5.30;;;;;;;16.82;nan;96460.28;4874759;28;20200;-57
2023/08/27 07:04:37;;;;;;;5.10;4.70;;;;;;;16.83;nan;96453.88;4997801;28;20211;-61
2023/08/27 07:07:06;;;;;;;5.60;5.20;;;;;;;16.88;nan;96451.31;4932575;28;20221;-61
2023/08/27 07:09:34;;;;;;;6.00;5.47;;;;;;;16.92;nan;96447.09;4998215;28;20215;-60
2023/08/27 07:12:02;;;;;;;6.23;5.73;;;;;;;16.93;nan;96449.53;4943108;28;20205;-60
2023/08/27 07:14:30;;;;;;;5.87;5.30;;;;;;;17.02;nan;96454.50;4997293;28;20752;-60
2023/08/27 07:16:58;;;;;;;5.90;5.50;;;;;;;17.03;nan;96459.63;4938327;28;20717;-58
2023/08/27 07:19:25;;;;;;;5.67;5.27;;;;;;;17.10;nan;96469.34;4998795;28;21667;-58
2023/08/27 07:21:53;;;;;;;5.20;4.80;;;;;;;17.04;nan;96465.78;4995329;28;20193;-57
2023/08/27 07:24:22;;;;;;;5.47;5.13;;;;;;;17.10;nan;96458.66;4935753;28;20672;-58
2023/08/27 07:26:50;;;;;;;5.63;5.23;;;;;;;17.17;nan;96453.94;4995902;28;21803;-61
2023/08/27 07:29:17;;;;;;;4.80;4.40;;;;;;;17.19;nan;96457.19;4997798;28;20669;-60
2023/08/27 07:31:45;;;;;;;4.60;4.37;;;;;;;17.14;nan;96446.41;4998364;28;20212;-60
2023/08/27 07:34:13;;;;;;;4.57;4.27;;;;;;;17.16;nan;96450.47;4873842;28;20213;-60
2023/08/27 07:36:40;;;;;;;5.20;4.90;;;;;;;17.20;nan;96454.25;4929154;28;20224;-62
2023/08/27 07:39:08;;;;;;;4.60;4.30;;;;;;;17.02;nan;96457.19;4998367;28;20256;-62
2023/08/27 07:41:37;;;;;;;5.57;4.47;;;;;;;16.98;nan;96451.53;4930246;28;20988;-61
2023/08/27 07:44:05;;;;;;;5.67;4.80;;;;;;;16.99;nan;96455.81;5003747;28;20204;-63
2023/08/27 07:46:33;;;;;;;4.77;4.33;;;;;;;16.97;nan;96449.88;4941947;28;20767;-60
2023/08/27 07:49:01;;;;;;;4.80;4.40;;;;;;;17.00;nan;96461.97;5001201;28;20201;-60
2023/08/27 07:51:28;;;;;;;4.63;4.27;;;;;;;16.98;nan;96450.69;5002319;28;20197;-61
2023/08/27 07:53:56;;;;;;;4.60;4.20;;;;;;;16.93;nan;96443.38;5002996;28;20220;-61
2023/08/27 07:56:25;;;;;;;4.33;4.03;;;;;;;17.12;nan;96427.91;4955614;28;20632;-59
2023/08/27 07:58:54;;;;;;;5.30;4.80;;;;;;;17.04;nan;96437.16;4988150;28;21425;-61
2023/08/27 08:01:22;;;;;;;4.30;4.00;;;;;;;17.00;nan;96443.22;4934431;28;20220;-61
2023/08/27 08:03:49;;;;;;;4.60;4.20;;;;;;;17.10;nan;96440.75;4997517;28;20581;-61
2023/08/27 08:06:17;;;;;;;4.10;3.90;;;;;;;17.13;nan;96436.75;4876395;28;21181;-60
2023/08/27 08:08:45;;;;;;;5.00;4.60;;;;;;;17.15;nan;96431.97;5001852;28;20228;-61
2023/08/27 08:11:13;;;;;;;5.83;5.33;;;;;;;17.25;nan;96426.78;4944880;28;20213;-59
2023/08/27 08:13:42;;;;;;;4.17;3.87;;;;;;;16.84;nan;96416.22;5001034;28;20201;-61
2023/08/27 08:16:12;;;;;;;4.27;3.90;;;;;;;16.97;nan;96417.75;4938980;28;20853;-59
2023/08/27 08:18:39;;;;;;;4.63;3.90;;;;;;;17.05;nan;96420.03;4995734;28;20233;-61
2023/08/27 08:21:07;;;;;;;4.67;4.27;;;;;;;17.18;nan;96412.72;4943742;28;20348;-59
2023/08/27 08:23:35;;;;;;;4.27;4.00;;;;;;;17.29;nan;96416.38;4996346;28;20219;-60
2023/08/27 08:26:04;;;;;;;3.70;3.50;;;;;;;17.17;nan;96422.63;4999507;28;20212;-61
2023/08/27 08:28:33;;;;;;;3.53;3.33;;;;;;;17.26;nan;96427.56;5001832;28;20228;-61
2023/08/27 08:31:03;;;;;;;3.60;3.27;;;;;;;17.27;nan;96410.44;4959672;28;20891;-60
2023/08/27 08:33:32;;;;;;;3.40;3.20;;;;;;;17.36;nan;96404.44;4925995;28;20322;-61
2023/08/27 08:35:59;;;;;;;3.83;3.57;;;;;;;17.55;nan;96400.66;4998382;28;20208;-61
2023/08/27 08:38:27;;;;;;;3.60;3.30;;;;;;;17.18;nan;96396.66;4890034;28;24130;-61
2023/08/27 08:40:58;;;;;;;2.87;2.67;;;;;;;17.53;nan;96408.94;4932947;28;20903;-62
2023/08/27 08:43:28;;;;;;;3.13;2.93;;;;;;;17.68;nan;96392.25;4996844;28;20205;-62
2023/08/27 08:46:03;;;;;;;2.97;2.77;;;;;;;17.97;nan;96381.34;4937617;28;20302;-62
2023/08/27 08:48:42;;;;;;;3.13;2.90;;;;;;;17.99;nan;96383.75;5010056;28;20220;-63
2023/08/27 08:51:11;;;;;;;3.67;2.70;;;;;;;18.20;nan;96387.53;5006208;28;20208;-62
2023/08/27 08:53:41;;;;;;;2.53;2.43;;;;;;;18.19;nan;96372.50;5002427;28;20240;-62
2023/08/27 08:56:12;;;;;;;2.87;2.67;;;;;;;17.91;nan;96353.66;4941770;28;20386;-62
2023/08/27 08:58:42;;;;;;;3.50;3.30;;;;;;;17.79;nan;96374.44;4997388;28;20246;-62
2023/08/27 09:01:10;;;;;;;3.07;2.87;;;;;;;18.04;nan;96378.50;4941481;28;20213;-62
2023/08/27 09:03:40;;;;;;;2.80;2.70;;;;;;;17.94;nan;96377.28;4999825;28;20205;-62
2023/08/27 09:06:08;;;;;;;3.57;3.00;;;;;;;17.97;nan;96383.19;4942374;28;20951;-62
2023/08/27 09:08:37;;;;;;;3.23;3.03;;;;;;;18.39;nan;96373.75;5002360;28;20228;-62
2023/08/27 09:11:05;;;;;;;3.20;3.00;;;;;;;18.77;nan;96385.31;4891406;28;20806;-62
2023/08/27 09:13:33;;;;;;;3.80;3.50;;;;;;;18.84;nan;96383.22;4991749;28;20220;-63
2023/08/27 09:16:01;;;;;;;3.23;3.03;;;;;;;19.09;nan;96381.84;4943351;28;20669;-62
2023/08/27 09:18:29;;;;;;;3.30;3.10;;;;;;;19.16;nan;96387.00;4999513;28;20236;-62
2023/08/27 09:21:00;;;;;;;2.80;2.60;;;;;;;19.31;nan;96392.44;4995076;28;20213;-62
2023/08/27 09:23:29;;;;;;;3.63;3.43;;;;;;;19.28;nan;96395.66;4897215;28;20251;-62
2023/08/27 09:25:59;;;;;;;3.60;3.30;;;;;;;18.74;nan;96400.06;4853053;28;20737;-61
2023/08/27 09:28:27;;;;;;;3.50;3.27;;;;;;;18.62;nan;96402.94;4926173;28;20224;-62
2023/08/27 09:30:55;;;;;;;3.90;3.60;;;;;;;18.72;nan;96402.19;4999290;28;20268;-61
2023/08/27 09:33:36;;;;;;;4.37;3.97;;;;;;;18.29;nan;96433.44;4995302;28;21133;-62
2023/08/27 09:36:05;;;;;;;3.67;3.47;;;;;;;18.20;nan;96433.88;4994586;28;20237;-63
2023/08/27 09:38:33;;;;;;;3.77;3.57;;;;;;;18.26;nan;96440.13;4925322;28;20224;-63
2023/08/27 09:41:12;;;;;;;3.23;3.10;;;;;;;18.27;nan;96441.75;4951438;28;20871;-61
2023/08/27 09:43:41;;;;;;;3.83;3.50;;;;;;;18.36;nan;96447.44;4995334;28;20941;-63
2023/08/27 09:46:10;;;;;;;6.07;5.63;;;;;;;18.26;nan;96436.63;4993512;28;20209;-63
2023/08/27 09:48:38;;;;;;;4.67;4.37;;;;;;;18.52;nan;96459.97;4997053;28;20593;-63
2023/08/27 09:51:07;;;;;;;4.33;4.03;;;;;;;18.63;nan;96460.06;4996581;28;20197;-63
2023/08/27 09:53:34;;;;;;;3.53;3.33;;;;;;;18.57;nan;96451.16;5001060;28;20197;-63
2023/08/27 09:56:09;;;;;;;3.33;3.13;;;;;;;18.57;nan;96437.75;4923308;28;21444;-62
2023/08/27 09:58:40;;;;;;;3.00;2.90;;;;;;;18.58;nan;96443.91;4993179;28;20243;-62
2023/08/27 10:01:09;;;;;;;3.30;3.10;;;;;;;18.63;nan;96435.91;4974695;28;20206;-61
2023/08/27 10:03:36;;;;;;;4.33;3.00;;;;;;;18.65;nan;96433.78;4988654;28;20221;-62
2023/08/27 10:06:04;;;;;;;2.97;2.80;;;;;;;18.38;nan;96440.00;4995450;28;20196;-62
2023/08/27 10:08:33;;;;;;;2.93;2.83;;;;;;;18.63;nan;96431.38;5001882;28;20217;-62
2023/08/27 10:11:10;;;;;;;2.87;2.67;;;;;;;18.74;nan;96424.19;4961042;28;21286;-61
2023/08/27 10:13:40;;;;;;;3.43;3.13;;;;;;;19.03;nan;96415.88;4996059;28;20216;-62
2023/08/27 10:16:08;;;;;;;2.60;2.50;;;;;;;19.32;nan;96409.34;4997786;28;20232;-62
2023/08/27 10:18:36;;;;;;;2.73;2.63;;;;;;;19.53;nan;96403.03;4999290;28;20232;-63
2023/08/27 10:21:04;;;;;;;2.80;2.70;;;;;;;19.65;nan;96396.63;5001312;28;20414;-63
2023/08/27 10:23:34;;;;;;;3.20;3.00;;;;;;;19.72;nan;96399.91;4998009;28;20205;-62
2023/08/27 10:26:02;;;;;;;4.13;3.00;;;;;;;20.06;nan;96390.66;4933279;28;20276;-62
2023/08/27 10:28:30;;;;;;;2.53;2.43;;;;;;;20.03;nan;96388.50;5000469;28;20227;-62
2023/08/27 10:30:58;;;;;;;3.70;3.40;;;;;;;20.19;nan;96374.00;4875367;28;20239;-62
2023/08/27 10:33:25;;;;;;;2.30;2.20;;;;;;;20.10;nan;96380.97;5005004;28;20197;-63
2023/08/27 10:35:54;;;;;;;2.60;2.50;;;;;;;20.15;nan;96388.25;4998829;28;20312;-63
2023/08/27 10:38:23;;;;;;;2.40;2.30;;;;;;;20.20;nan;96391.75;5002087;28;20221;-63
2023/08/27 10:40:52;;;;;;;2.33;2.23;;;;;;;19.67;nan;96373.00;4939165;28;20820;-64
2023/08/27 10:43:21;;;;;;;2.13;2.03;;;;;;;20.00;nan;96380.97;5002807;28;20224;-63
2023/08/27 10:45:49;;;;;;;2.30;2.20;;;;;;;20.00;nan;96383.66;4932243;28;20389;-64
2023/08/27 10:48:25;;;;;;;2.10;2.00;;;;;;;20.23;nan;96376.97;5000454;28;20247;-64
2023/08/27 10:50:55;;;;;;;2.00;1.90;;;;;;;20.01;nan;96366.44;4930806;28;20207;-63
2023/08/27 10:53:23;;;;;;;1.90;1.80;;;;;;;20.13;nan;96375.06;4998784;28;20204;-64
2023/08/27 10:55:53;;;;;;;2.33;2.13;;;;;;;20.32;nan;96366.50;4995924;28;20331;-63
2023/08/27 10:58:21;;;;;;;1.83;1.73;;;;;;;20.23;nan;96364.31;5001055;28;20281;-64
2023/08/27 11:01:03;;;;;;;1.73;1.63;;;;;;;20.51;nan;96354.13;4991894;28;20233;-63
2023/08/27 11:03:57;;;;;;;1.80;1.80;;;;;;;20.70;nan;96347.41;4999037;28;20771;-62
2023/08/27 11:06:33;;;;;;;2.03;1.93;;;;;;;20.63;nan;96344.97;4909480;28;20675;-63
2023/08/27 11:09:02;;;;;;;2.00;1.90;;;;;;;;;;4977735;28;20200;-60
2023/08/27 11:11:44;;;;;;;1.63;1.53;;;;;;;20.93;nan;96348.75;4975815;28;20302;-63
2023/08/27 11:14:15;;;;;;;1.97;1.87;;;;;;;20.70;nan;96329.41;4969295;28;20829;-62
2023/08/27 11:16:49;;;;;;;2.03;1.70;;;;;;;20.87;nan;96339.09;4983910;28;20232;-62
2023/08/27 11:19:31;;;;;;;1.63;1.63;;;;;;;20.66;nan;96339.09;4932019;28;20795;-61
2023/08/27 11:22:07;;;;;;;2.00;1.90;;;;;;;20.85;nan;96341.25;4999235;28;20208;-61
2023/08/27 11:24:35;;;;;;;1.30;1.30;;;;;;;20.43;nan;96345.78;4991242;28;20196;-62
2023/08/27 11:27:04;;;;;;;1.40;1.40;;;;;;;20.59;nan;96343.91;4998252;28;20251;-62
2023/08/27 11:29:32;;;;;;;1.60;1.50;;;;;;;20.22;nan;96343.09;4993910;28;20205;-63
2023/08/27 11:32:02;;;;;;;1.70;1.60;;;;;;;20.12;nan;96357.31;4996278;28;20212;-62
2023/08/27 11:34:35;;;;;;;1.80;1.70;;;;;;;19.95;nan;96350.31;4995107;28;20431;-63
2023/08/27 11:37:04;;;;;;;1.27;1.27;;;;;;;19.86;nan;96351.03;4997562;28;20705;-62
2023/08/27 11:39:33;;;;;;;1.97;1.87;;;;;;;20.15;nan;96353.31;4870992;28;20644;-63
2023/08/27 11:42:00;;;;;;;1.37;1.37;;;;;;;20.33;nan;96354.69;4999612;28;20208;-62
2023/08/27 11:44:29;;;;;;;2.37;2.10;;;;;;;20.44;nan;96348.22;4993018;28;20616;-63
2023/08/27 11:47:06;;;;;;;1.63;1.57;;;;;;;20.43;nan;96343.91;4819615;28;21038;-62
2023/08/27 11:49:35;;;;;;;1.40;1.40;;;;;;;20.38;nan;96347.41;4971168;28;20601;-62
2023/08/27 11:52:04;;;;;;;1.33;1.33;;;;;;;20.43;nan;96345.78;4958291;28;20204;-62
2023/08/27 11:54:32;;;;;;;1.73;1.63;;;;;;;20.71;nan;96341.78;4999684;28;20205;-62
2023/08/27 11:57:02;;;;;;;1.70;1.60;;;;;;;20.81;nan;96336.41;4993502;28;20239;-63
2023/08/27 11:59:32;;;;;;;1.20;1.20;;;;;;;20.91;nan;96326.69;4997590;28;20226;-61
2023/08/27 12:02:03;;;;;;;1.30;1.20;;;;;;;21.15;nan;96337.69;4968736;28;20212;-61
2023/08/27 12:04:32;;;;;;;1.33;1.30;;;;;;;20.84;nan;96336.94;5015935;28;20208;-61
2023/08/27 12:07:02;;;;;;;1.90;1.80;;;;;;;21.09;nan;96342.28;5011534;28;20228;-62
2023/08/27 12:09:30;;;;;;;1.77;1.67;;;;;;;21.27;nan;96350.06;5010003;28;20204;-62
2023/08/27 12:12:03;;;;;;;1.33;1.30;;;;;;;21.02;nan;96357.13;5010705;28;20208;-62
2023/08/27 12:14:32;;;;;;;1.23;1.13;;;;;;;20.88;nan;96356.84;5020164;28;20208;-61
2023/08/27 12:17:07;;;;;;;1.27;1.27;;;;;;;20.63;nan;96356.56;5014358;28;20225;-62
2023/08/27 12:19:39;;;;;;;1.20;1.20;;;;;;;20.28;nan;96368.13;4975650;28;20211;-61
2023/08/27 12:22:08;;;;;;;1.73;1.63;;;;;;;20.41;nan;96364.91;4959213;28;20290;-62